Time;durP1;ratioP1;P1;durP2;ratioP2;P2;SDS_P1;SDS_P2;PMS_P1;PMS_P2;Temp;Humidity;BMP_temperature;BMP_pressure;BME280_temperature;BME280_humidity;BME280_pressure;Samples;Min_cycle;Max_cycle;Signal;HPM_P1;HPM_P2
2021/05/03 07:52:14;;;;;;;31.73;24.00;;;20.60;86.40;;;;;;5110910;27;20339;-83
2021/05/03 07:54:40;;;;;;;37.45;26.13;;;20.70;87.20;;;;;;5090456;28;20042;-82
2021/05/03 07:57:05;;;;;;;39.92;28.77;;;20.80;87.30;;;;;;5090184;28;20028;-83
2021/05/03 07:59:31;;;;;;;39.40;30.48;;;20.80;87.10;;;;;;5090417;28;20070;-83
2021/05/03 08:01:57;;;;;;;42.35;31.63;;;20.80;87.10;;;;;;5055071;28;20036;-83
2021/05/03 08:04:23;;;;;;;44.03;33.47;;;20.80;87.00;;;;;;5090593;28;20024;-83
2021/05/03 08:06:52;;;;;;;48.17;35.63;;;20.80;86.80;;;;;;5072066;28;20028;-83
2021/05/03 08:09:17;;;;;;;46.70;35.30;;;20.80;86.70;;;;;;5089874;28;20028;-82
2021/05/03 08:11:44;;;;;;;47.33;35.45;;;20.80;86.70;;;;;;5090353;28;20485;-82
2021/05/03 08:14:18;;;;;;;48.25;34.75;;;20.80;86.60;;;;;;5089840;28;20016;-83
2021/05/03 08:16:43;;;;;;;48.95;35.65;;;20.80;86.50;;;;;;5071968;28;20028;-82
2021/05/03 08:19:09;;;;;;;47.38;35.17;;;20.80;86.50;;;;;;5089881;28;20484;-83
2021/05/03 08:21:38;;;;;;;47.67;34.55;;;20.80;86.60;;;;;;5072057;28;20063;-84
2021/05/03 08:24:04;;;;;;;41.85;31.73;;;20.80;87.00;;;;;;5088789;28;20093;-82
2021/05/03 08:26:29;;;;;;;40.60;30.40;;;20.80;86.60;;;;;;5090139;28;20048;-81
2021/05/03 08:28:55;;;;;;;37.58;28.25;;;20.80;86.60;;;;;;5090143;28;20031;-81
2021/05/03 08:31:20;;;;;;;35.53;26.65;;;20.80;87.40;;;;;;5090198;28;20036;-82
2021/05/03 08:33:46;;;;;;;37.17;27.20;;;20.90;87.60;;;;;;5090896;28;20054;-84
2021/05/03 08:36:12;;;;;;;33.13;24.85;;;20.90;87.70;;;;;;5090120;28;20028;-83
2021/05/03 08:38:37;;;;;;;34.80;25.73;;;20.90;87.60;;;;;;5089875;28;20028;-84
2021/05/03 08:41:04;;;;;;;34.53;25.67;;;20.90;87.60;;;;;;5089671;28;20032;-84
2021/05/03 08:43:33;;;;;;;33.40;24.23;;;20.90;87.60;;;;;;5089664;28;20020;-85
2021/05/03 08:45:59;;;;;;;35.67;24.75;;;20.90;87.60;;;;;;5071143;28;20450;-85
2021/05/03 08:48:41;;;;;;;30.88;22.73;;;20.90;87.70;;;;;;5071456;28;20039;-84
2021/05/03 08:51:16;;;;;;;29.77;22.42;;;20.90;88.20;;;;;;5077713;28;20139;-84
2021/05/03 08:53:44;;;;;;;29.85;20.90;;;20.90;87.50;;;;;;5069022;28;20427;-84
2021/05/03 08:56:10;;;;;;;23.98;19.02;;;20.90;87.40;;;;;;5068537;28;20106;-83
2021/05/03 08:58:38;;;;;;;26.48;19.05;;;20.90;87.30;;;;;;5069393;28;20016;-84
2021/05/03 09:01:04;;;;;;;24.48;18.00;;;20.90;87.10;;;;;;5069013;28;20025;-85
2021/05/03 09:03:30;;;;;;;23.65;16.33;;;20.90;87.00;;;;;;5056638;28;20024;-84
2021/05/03 09:06:04;;;;;;;18.38;14.30;;;20.90;86.80;;;;;;5021351;28;20465;-83
2021/05/03 09:08:31;;;;;;;18.65;14.40;;;20.90;86.70;;;;;;5055736;28;20027;-85
2021/05/03 09:10:58;;;;;;;18.67;13.32;;;20.90;86.40;;;;;;5055457;28;20466;-84
2021/05/03 09:13:36;;;;;;;17.10;12.13;;;20.80;86.30;;;;;;5037934;28;20020;-86
2021/05/03 09:16:14;;;;;;;15.40;11.00;;;20.80;86.10;;;;;;5055540;28;20019;-88
2021/05/03 09:18:40;;;;;;;14.95;10.77;;;20.80;85.90;;;;;;5038227;28;20021;-82
2021/05/03 09:21:33;;;;;;;12.93;8.88;;;20.80;85.90;;;;;;5055142;28;20071;-85
2021/05/03 09:24:23;;;;;;;12.18;8.80;;;20.80;85.70;;;;;;5055735;28;20021;-83
2021/05/03 09:27:05;;;;;;;11.82;8.57;;;20.80;85.60;;;;;;5037708;28;20021;-84
2021/05/03 09:29:41;;;;;;;11.15;8.00;;;20.80;85.60;;;;;;5058798;28;20442;-82
2021/05/03 09:32:08;;;;;;;8.82;6.45;;;20.80;85.70;;;;;;5039571;28;20052;-84
2021/05/03 09:34:46;;;;;;;7.95;6.50;;;20.80;85.80;;;;;;5055084;28;20498;-84
2021/05/03 09:37:32;;;;;;;10.25;6.63;;;20.90;85.90;;;;;;5037203;28;20067;-83
2021/05/03 09:40:12;;;;;;;7.82;6.15;;;20.90;85.90;;;;;;5037046;28;20374;-84
2021/05/03 09:42:58;;;;;;;8.98;6.80;;;20.90;86.10;;;;;;5055098;28;20021;-83
2021/05/03 09:45:33;;;;;;;8.38;6.18;;;21.00;86.20;;;;;;5054688;28;20191;-82
2021/05/03 09:50:33;;;;;;;11.70;7.72;;;21.00;86.00;;;;;;5107545;27;749926;-95
2021/05/03 09:53:09;;;;;;;12.95;8.93;;;21.20;87.70;;;;;;5081990;28;20054;-94
2021/05/03 09:55:53;;;;;;;13.18;9.85;;;21.20;87.60;;;;;;5115077;28;20030;-94
2021/05/03 09:58:23;;;;;;;16.65;10.98;;;21.40;87.90;;;;;;5092779;28;20032;-91
2021/05/03 10:00:59;;;;;;;19.23;12.32;;;21.50;88.00;;;;;;5078060;28;20024;-91
2021/05/03 10:03:35;;;;;;;18.75;13.10;;;21.70;88.20;;;;;;5076668;28;20028;-92
2021/05/03 10:06:02;;;;;;;15.75;11.60;;;21.80;88.60;;;;;;5092532;28;20020;-86
2021/05/03 10:08:28;;;;;;;17.60;12.68;;;21.90;88.60;;;;;;5092150;28;20120;-89
2021/05/03 10:10:57;;;;;;;19.10;13.43;;;22.00;88.60;;;;;;5094391;28;20035;-87
2021/05/03 10:13:24;;;;;;;20.75;14.43;;;22.10;88.50;;;;;;5091685;28;20377;-83
2021/05/03 10:15:55;;;;;;;20.08;13.68;;;22.20;88.00;;;;;;5110437;28;20015;-84
2021/05/03 10:18:21;;;;;;;23.20;15.27;;;22.30;87.70;;;;;;5090773;28;20076;-84
2021/05/03 10:20:47;;;;;;;23.27;15.68;;;22.30;87.60;;;;;;5109716;28;20373;-85
2021/05/03 10:23:15;;;;;;;21.83;14.65;;;22.30;87.50;;;;;;5110369;28;20035;-85
2021/05/03 10:25:42;;;;;;;22.10;15.13;;;22.40;87.50;;;;;;5110122;28;20119;-83
2021/05/03 10:28:08;;;;;;;21.17;15.00;;;22.50;88.00;;;;;;5110296;28;20024;-88
2021/05/03 10:30:43;;;;;;;18.67;13.48;;;22.50;87.50;;;;;;5110167;28;20024;-91
2021/05/03 10:33:11;;;;;;;22.63;14.07;;;22.60;87.80;;;;;;5110303;28;20016;-87
2021/05/03 10:35:45;;;;;;;21.60;14.30;;;22.60;87.60;;;;;;5109786;28;20020;-86
2021/05/03 10:38:42;;;;;;;24.02;15.55;;;22.60;87.20;;;;;;5109582;28;20020;-87
2021/05/03 10:41:23;;;;;;;23.15;16.38;;;22.60;86.90;;;;;;5092031;28;20051;-86
2021/05/03 10:43:51;;;;;;;25.90;18.17;;;22.60;86.60;;;;;;5091506;28;20107;-86
2021/05/03 10:49:03;;;;;;;28.90;19.83;;;22.50;85.90;;;;;;5091119;28;20063;-87
2021/05/03 12:09:12;;;;;;;10.98;6.18;;;25.30;77.60;;;;;;5111091;27;20322;-84
2021/05/03 12:11:52;;;;;;;8.07;4.88;;;25.20;77.30;;;;;;5110658;28;20358;-85
2021/05/03 12:14:18;;;;;;;5.78;4.22;;;24.70;77.40;;;;;;5109560;28;20035;-85
2021/05/03 12:16:44;;;;;;;7.93;4.47;;;24.20;77.80;;;;;;5109361;28;20028;-85
2021/05/03 12:19:20;;;;;;;8.32;4.75;;;23.80;78.30;;;;;;5110355;28;20116;-84
2021/05/03 12:21:59;;;;;;;7.43;4.57;;;23.40;79.30;;;;;;5110549;28;20109;-85
2021/05/03 12:24:25;;;;;;;6.95;3.75;;;23.10;79.30;;;;;;5111579;28;20028;-85
2021/05/03 12:26:58;;;;;;;6.43;3.85;;;22.80;79.70;;;;;;5092402;28;20500;-84
2021/05/03 12:29:25;;;;;;;5.60;3.85;;;22.60;80.00;;;;;;5110411;28;20026;-85
2021/05/03 12:31:53;;;;;;;5.72;3.42;;;22.40;80.20;;;;;;5109469;28;20073;-85
2021/05/03 12:34:21;;;;;;;6.05;3.30;;;22.20;80.40;;;;;;5110849;28;20024;-84
2021/05/03 12:37:08;;;;;;;4.30;3.22;;;22.10;80.60;;;;;;5092019;28;20028;-85
2021/05/03 12:39:37;;;;;;;4.03;2.80;;;22.00;80.80;;;;;;5108872;28;20024;-85
2021/05/03 12:42:14;;;;;;;5.57;2.90;;;21.80;80.80;;;;;;5110415;28;20020;-85
2021/05/03 12:44:46;;;;;;;3.40;2.53;;;21.80;81.00;;;;;;5110015;28;20024;-85
2021/05/03 12:47:57;;;;;;;4.78;2.88;;;21.70;81.10;;;;;;5110579;28;20032;-84
2021/05/03 13:04:19;;;;;;;6.88;5.13;;;21.50;81.80;;;;;;5109157;28;20035;-85
2021/05/03 13:06:49;;;;;;;10.18;6.93;;;21.50;82.00;;;;;;5108496;28;20191;-86
2021/05/03 13:09:44;;;;;;;8.95;6.68;;;21.50;82.10;;;;;;5108968;28;20528;-85
2021/05/03 13:29:24;;;;;;;10.80;8.02;;;21.50;82.30;;;;;;5095062;28;20046;-85
2021/05/03 13:31:50;;;;;;;12.13;8.43;;;21.40;82.10;;;;;;5096062;28;20024;-85
2021/05/03 13:34:18;;;;;;;12.38;8.45;;;21.40;82.10;;;;;;5094466;28;20518;-85
2021/05/03 13:36:48;;;;;;;9.40;7.40;;;21.40;82.10;;;;;;5095401;28;20480;-85
2021/05/03 13:39:18;;;;;;;11.20;7.55;;;21.40;82.10;;;;;;5095803;28;20058;-84
2021/05/03 13:41:46;;;;;;;8.70;7.07;;;21.40;82.10;;;;;;5095229;28;20119;-84
2021/05/03 13:44:13;;;;;;;9.90;6.93;;;21.40;82.00;;;;;;5094391;28;20020;-84
2021/05/03 13:46:40;;;;;;;9.98;6.78;;;21.40;82.00;;;;;;5094141;28;20024;-84
2021/05/03 13:49:06;;;;;;;8.70;6.82;;;21.40;82.10;;;;;;5095685;28;20028;-84
2021/05/03 13:51:32;;;;;;;8.32;6.38;;;21.40;82.00;;;;;;5093933;28;20024;-84
2021/05/03 13:53:59;;;;;;;7.78;5.78;;;21.40;82.00;;;;;;5094666;28;20020;-84
2021/05/03 13:56:25;;;;;;;8.45;6.00;;;21.40;81.90;;;;;;5094394;28;20054;-85
2021/05/03 13:58:50;;;;;;;6.95;5.65;;;21.40;81.90;;;;;;5093800;28;20043;-85
2021/05/03 14:01:17;;;;;;;9.05;6.03;;;21.40;81.90;;;;;;5095590;28;20124;-83
2021/05/03 14:03:42;;;;;;;8.05;6.53;;;21.30;81.80;;;;;;5095051;28;20024;-83
2021/05/03 14:06:11;;;;;;;7.07;5.60;;;21.30;81.90;;;;;;5094291;28;20024;-84
2021/05/03 14:08:37;;;;;;;8.35;6.50;;;21.30;81.90;;;;;;5093744;28;20112;-84
2021/05/03 14:11:06;;;;;;;9.57;6.32;;;21.30;81.80;;;;;;5095122;28;20028;-83
2021/05/03 14:13:32;;;;;;;8.35;6.22;;;21.30;81.90;;;;;;5095166;28;20047;-83
2021/05/03 14:15:58;;;;;;;6.88;5.93;;;21.30;81.90;;;;;;5076961;28;20032;-83
2021/05/03 14:18:24;;;;;;;9.10;6.10;;;21.30;81.80;;;;;;5077014;28;20098;-83
2021/05/03 14:20:50;;;;;;;7.85;5.65;;;21.30;81.80;;;;;;5076484;28;20054;-83
2021/05/03 14:23:16;;;;;;;7.28;5.35;;;21.30;81.80;;;;;;5093823;28;20373;-84
2021/05/03 14:25:42;;;;;;;8.00;5.30;;;21.30;81.80;;;;;;5094237;28;20025;-84
2021/05/03 14:28:13;;;;;;;7.22;5.05;;;21.30;81.70;;;;;;5094831;28;20438;-83
2021/05/03 14:30:53;;;;;;;6.53;5.00;;;21.30;81.80;;;;;;5093848;28;20046;-83
2021/05/03 14:33:30;;;;;;;7.88;5.10;;;21.30;81.70;;;;;;5078574;28;20467;-84
2021/05/03 14:35:56;;;;;;;6.15;4.78;;;21.20;81.60;;;;;;5094422;28;20144;-84
2021/05/03 14:38:22;;;;;;;6.50;4.53;;;21.30;81.70;;;;;;5094578;28;20027;-84
2021/05/03 14:40:49;;;;;;;5.88;4.80;;;21.30;81.60;;;;;;5094298;28;20031;-84
2021/05/03 14:43:16;;;;;;;7.00;4.10;;;21.30;81.60;;;;;;5093183;28;20024;-84
2021/05/03 14:45:57;;;;;;;6.95;4.18;;;21.20;81.50;;;;;;5094139;28;20064;-83
2021/05/03 14:51:16;;;;;;;5.63;3.75;;;21.20;81.50;;;;;;5093194;28;20446;-84
2021/05/03 14:56:23;;;;;;;5.30;4.10;;;21.20;81.40;;;;;;5094663;28;20064;-83
2021/05/03 14:58:49;;;;;;;7.32;4.20;;;21.20;81.30;;;;;;5092618;28;20055;-84
2021/05/03 15:01:15;;;;;;;4.90;3.60;;;21.20;81.30;;;;;;5093113;28;20552;-83
2021/05/03 15:03:40;;;;;;;4.35;3.33;;;21.20;81.30;;;;;;5093946;28;20095;-84
2021/05/03 15:06:09;;;;;;;4.13;3.58;;;21.20;81.80;;;;;;5094441;28;20353;-81
2021/05/03 15:08:35;;;;;;;5.07;3.67;;;21.20;81.20;;;;;;5094352;28;20048;-83
2021/05/03 15:11:01;;;;;;;3.80;3.10;;;21.20;81.20;;;;;;5095283;28;20043;-84
2021/05/03 15:23:46;;;;;;;4.90;3.42;;;21.30;81.10;;;;;;5092669;28;20106;-85
2021/05/03 15:26:33;;;;;;;3.75;3.08;;;21.30;81.10;;;;;;5093750;28;20016;-84
2021/05/03 15:34:21;;;;;;;4.53;2.88;;;21.20;81.00;;;;;;5092998;28;20377;-90
2021/05/03 15:36:47;;;;;;;2.70;2.30;;;21.20;81.40;;;;;;5092381;28;20358;-85
2021/05/03 15:39:13;;;;;;;6.07;2.83;;;21.30;81.90;;;;;;5093436;28;20097;-83
2021/05/03 15:41:39;;;;;;;4.70;2.80;;;21.40;82.30;;;;;;5093832;28;20484;-90
2021/05/03 15:44:13;;;;;;;4.30;2.90;;;21.40;82.40;;;;;;5092500;28;20020;-87
2021/05/03 15:46:39;;;;;;;3.53;2.40;;;21.50;82.40;;;;;;5094275;28;20090;-88
2021/05/03 15:49:05;;;;;;;3.47;2.60;;;21.60;82.40;;;;;;5075208;28;20032;-88
2021/05/03 15:51:32;;;;;;;4.05;2.70;;;21.70;82.50;;;;;;5092281;28;20020;-82
2021/05/03 15:53:57;;;;;;;4.28;2.92;;;21.70;82.40;;;;;;5092805;28;20067;-82
2021/05/03 15:56:23;;;;;;;4.57;3.10;;;21.80;82.30;;;;;;5092124;28;20481;-82
2021/05/03 15:58:51;;;;;;;4.90;3.33;;;21.80;82.00;;;;;;5092740;28;20111;-82
2021/05/03 16:01:18;;;;;;;5.78;3.35;;;21.80;81.70;;;;;;5093018;28;20023;-83
2021/05/03 16:03:45;;;;;;;4.93;3.30;;;21.80;81.50;;;;;;5092806;28;20027;-82
2021/05/03 16:06:11;;;;;;;5.70;3.40;;;21.70;81.30;;;;;;5092939;28;20032;-82
2021/05/03 16:08:38;;;;;;;5.05;3.08;;;21.70;81.20;;;;;;5093079;28;20052;-82
2021/05/03 16:11:04;;;;;;;3.72;2.92;;;21.70;81.10;;;;;;5092739;28;20016;-82
2021/05/03 16:13:31;;;;;;;3.85;2.92;;;21.70;81.00;;;;;;5093028;28;20026;-83
2021/05/03 16:15:56;;;;;;;6.43;3.38;;;21.70;80.90;;;;;;5092789;28;20096;-83
2021/05/03 16:18:22;;;;;;;4.47;3.10;;;21.60;80.80;;;;;;5091730;28;20458;-82
2021/05/03 16:20:47;;;;;;;6.35;2.83;;;21.60;80.80;;;;;;5092862;28;20446;-84
2021/05/03 16:23:13;;;;;;;3.65;2.65;;;21.60;80.80;;;;;;5091706;28;20028;-82
2021/05/03 16:25:39;;;;;;;3.63;2.80;;;21.60;80.80;;;;;;5091720;28;20020;-82
2021/05/03 16:28:05;;;;;;;4.25;2.67;;;21.60;80.80;;;;;;5092555;28;20028;-82
2021/05/03 16:30:31;;;;;;;5.85;3.10;;;21.60;80.80;;;;;;5091627;28;20024;-84
2021/05/03 16:32:57;;;;;;;3.00;2.38;;;21.50;80.70;;;;;;5091382;28;20457;-82
2021/05/03 16:35:24;;;;;;;2.92;2.33;;;21.50;80.80;;;;;;5091449;28;20166;-82
2021/05/03 16:37:49;;;;;;;3.83;1.98;;;21.50;80.70;;;;;;5092746;28;20030;-84
2021/05/03 16:40:16;;;;;;;4.10;2.33;;;21.50;80.80;;;;;;5092874;28;20439;-82
2021/05/03 16:42:43;;;;;;;4.57;2.40;;;21.50;80.80;;;;;;5092755;28;20031;-82
2021/05/03 16:45:10;;;;;;;3.45;2.70;;;21.50;80.80;;;;;;5091223;28;20046;-82
2021/05/03 16:47:35;;;;;;;2.42;2.08;;;21.50;80.80;;;;;;5092992;28;20035;-81
2021/05/03 16:50:01;;;;;;;4.05;2.13;;;21.50;80.80;;;;;;5093113;28;20028;-81
2021/05/03 16:52:27;;;;;;;3.22;2.28;;;21.40;80.70;;;;;;5093519;28;20453;-81
2021/05/03 16:54:53;;;;;;;2.45;1.83;;;21.40;80.70;;;;;;5093831;28;20409;-83
2021/05/03 16:57:18;;;;;;;3.67;1.80;;;21.40;80.70;;;;;;5095039;28;20077;-82
2021/05/03 16:59:44;;;;;;;2.83;2.22;;;21.40;80.70;;;;;;5096305;28;20458;-84
2021/05/03 17:02:09;;;;;;;4.30;2.30;;;21.40;80.70;;;;;;5095368;28;20115;-82
2021/05/03 17:04:35;;;;;;;2.50;1.90;;;21.40;80.70;;;;;;5096810;28;20373;-82
2021/05/03 17:07:02;;;;;;;1.92;1.65;;;21.40;80.80;;;;;;5096243;28;20070;-82
2021/05/03 17:09:27;;;;;;;2.80;1.95;;;21.40;80.70;;;;;;5095609;28;20504;-82
2021/05/03 17:11:53;;;;;;;2.63;2.20;;;21.40;80.80;;;;;;5096202;28;20036;-86
2021/05/03 17:14:20;;;;;;;3.80;2.30;;;21.40;80.80;;;;;;5096329;28;20016;-82
2021/05/03 17:16:48;;;;;;;3.60;2.30;;;21.40;80.80;;;;;;5096219;28;20028;-82
2021/05/03 17:19:14;;;;;;;2.38;1.70;;;21.40;80.80;;;;;;5093739;28;20043;-82
2021/05/03 17:21:41;;;;;;;2.25;1.85;;;21.40;80.80;;;;;;5095891;28;20024;-82
2021/05/03 17:24:08;;;;;;;2.88;1.90;;;21.40;80.80;;;;;;5095550;28;20024;-82
2021/05/03 17:26:34;;;;;;;2.35;1.80;;;21.40;80.80;;;;;;5095838;28;20039;-82
2021/05/03 17:29:04;;;;;;;2.10;1.60;;;21.30;80.70;;;;;;5095456;28;20078;-83
2021/05/03 17:31:32;;;;;;;2.88;1.90;;;21.30;80.70;;;;;;5095907;28;20032;-82
2021/05/03 17:33:58;;;;;;;1.75;1.55;;;21.30;80.70;;;;;;5095513;28;20354;-83
2021/05/03 17:36:24;;;;;;;3.47;1.98;;;21.30;80.70;;;;;;5095858;28;20032;-82
2021/05/03 17:38:50;;;;;;;2.47;1.90;;;21.30;80.70;;;;;;5094436;28;20032;-82
2021/05/03 17:41:16;;;;;;;3.80;1.95;;;21.30;80.70;;;;;;5077329;28;20425;-82
2021/05/03 17:43:41;;;;;;;2.05;1.63;;;21.30;80.70;;;;;;5095249;28;20028;-83
2021/05/03 17:46:07;;;;;;;1.92;1.58;;;21.30;80.70;;;;;;5095150;28;20024;-82
2021/05/03 17:48:32;;;;;;;3.75;2.30;;;21.30;80.70;;;;;;5095530;28;20374;-82
2021/05/03 17:50:58;;;;;;;1.83;1.67;;;21.30;80.70;;;;;;5094250;28;20410;-82
2021/05/03 17:53:24;;;;;;;2.33;1.67;;;21.30;80.70;;;;;;5095422;28;20028;-82
2021/05/03 17:55:52;;;;;;;2.85;1.67;;;21.30;80.70;;;;;;5094052;28;20031;-81
2021/05/03 17:58:18;;;;;;;2.17;1.60;;;21.30;80.70;;;;;;5093862;28;20032;-82
2021/05/03 18:00:44;;;;;;;2.47;1.73;;;21.20;80.70;;;;;;5094121;28;20024;-82
2021/05/03 18:03:10;;;;;;;1.95;1.52;;;21.20;80.70;;;;;;5095299;28;20051;-82
2021/05/03 18:05:37;;;;;;;2.10;1.80;;;21.20;80.60;;;;;;5093808;28;20028;-83
2021/05/03 18:08:03;;;;;;;2.97;1.70;;;21.30;80.70;;;;;;5093635;28;20051;-82
2021/05/03 18:10:31;;;;;;;2.13;1.58;;;21.20;80.60;;;;;;5093658;28;20477;-82
2021/05/03 18:12:57;;;;;;;1.33;1.13;;;21.20;80.60;;;;;;5094393;28;20107;-82
2021/05/03 18:15:27;;;;;;;1.52;1.42;;;21.20;80.60;;;;;;5094644;28;20286;-82
2021/05/03 18:17:53;;;;;;;2.58;1.70;;;21.20;80.60;;;;;;5094895;28;20582;-82
2021/05/03 18:20:19;;;;;;;2.83;1.60;;;21.20;80.60;;;;;;5094608;28;20031;-82
2021/05/03 18:22:45;;;;;;;3.38;1.63;;;21.20;80.50;;;;;;5093669;28;20024;-84
2021/05/03 18:25:12;;;;;;;3.53;1.75;;;21.20;80.50;;;;;;5093193;28;20081;-83
2021/05/03 18:27:38;;;;;;;3.65;2.63;;;21.20;80.50;;;;;;5094444;28;20040;-83
2021/05/03 18:30:07;;;;;;;3.67;2.65;;;21.30;80.70;;;;;;5094393;28;20484;-83
2021/05/03 18:32:34;;;;;;;5.05;3.13;;;21.20;80.60;;;;;;5094871;28;20469;-82
2021/05/03 18:35:00;;;;;;;3.55;2.50;;;21.20;80.50;;;;;;5076626;28;20134;-82
2021/05/03 18:37:26;;;;;;;3.85;2.83;;;21.20;80.50;;;;;;5092992;28;20520;-82
2021/05/03 18:39:53;;;;;;;3.03;2.30;;;21.20;80.50;;;;;;5094213;28;20024;-82
2021/05/03 18:42:19;;;;;;;3.05;2.22;;;21.20;80.50;;;;;;5094304;28;20067;-82
2021/05/03 18:44:44;;;;;;;3.03;2.25;;;21.20;80.50;;;;;;5094580;28;20397;-82
2021/05/03 18:47:10;;;;;;;3.05;2.28;;;21.20;80.50;;;;;;5094149;28;20035;-82
2021/05/03 18:49:40;;;;;;;3.75;1.92;;;21.20;80.50;;;;;;5076192;28;20373;-82
2021/05/03 18:52:06;;;;;;;3.72;2.00;;;21.20;80.50;;;;;;5094018;28;20032;-83
2021/05/03 18:54:32;;;;;;;3.88;2.03;;;21.10;80.40;;;;;;5094247;28;20042;-82
2021/05/03 18:56:57;;;;;;;3.78;2.08;;;21.20;80.50;;;;;;5093045;28;20472;-83
2021/05/03 18:59:23;;;;;;;6.03;3.60;;;21.20;80.40;;;;;;5092720;28;20071;-82
2021/05/03 19:01:49;;;;;;;9.63;5.53;;;21.20;80.40;;;;;;5093191;28;20485;-82
2021/05/03 19:04:14;;;;;;;7.90;5.65;;;21.10;80.40;;;;;;5093637;28;20032;-83
2021/05/03 19:06:40;;;;;;;8.40;6.05;;;21.10;80.40;;;;;;5092837;28;20035;-82
2021/05/03 19:09:06;;;;;;;7.60;5.70;;;21.20;80.40;;;;;;5092368;28;20048;-83
2021/05/03 19:11:32;;;;;;;8.70;6.05;;;21.10;80.30;;;;;;5093789;28;20020;-82
2021/05/03 19:13:58;;;;;;;7.22;5.25;;;21.20;80.40;;;;;;5093980;28;20028;-82
2021/05/03 19:16:23;;;;;;;6.22;4.53;;;21.10;80.40;;;;;;5091835;28;20031;-82
2021/05/03 19:18:49;;;;;;;7.05;4.80;;;21.10;80.40;;;;;;5093630;28;20028;-83
2021/05/03 19:21:15;;;;;;;6.50;4.55;;;21.10;80.50;;;;;;5093439;28;20369;-83
2021/05/03 19:23:40;;;;;;;6.15;4.20;;;21.10;80.50;;;;;;5093433;28;20366;-83
2021/05/03 19:26:06;;;;;;;5.95;3.97;;;21.10;80.40;;;;;;5093504;28;20031;-81
2021/05/03 19:28:33;;;;;;;7.55;4.82;;;21.10;80.40;;;;;;5093703;28;20518;-81
2021/05/03 19:31:04;;;;;;;5.57;4.45;;;21.10;80.50;;;;;;5093671;28;20035;-81
2021/05/03 19:33:30;;;;;;;6.75;5.13;;;21.10;80.50;;;;;;5092083;28;20469;-81
2021/05/03 19:35:55;;;;;;;7.82;5.13;;;21.10;80.50;;;;;;5093297;28;20043;-81
2021/05/03 19:38:23;;;;;;;8.32;5.20;;;21.00;80.40;;;;;;5091727;28;20102;-81
2021/05/03 19:40:49;;;;;;;7.68;5.20;;;21.00;80.50;;;;;;5092275;28;20032;-81
2021/05/03 19:43:15;;;;;;;7.93;5.32;;;21.00;80.50;;;;;;5091916;28;20035;-81
2021/05/03 19:45:41;;;;;;;6.32;4.45;;;21.00;80.50;;;;;;5092069;28;20028;-81
2021/05/03 19:48:07;;;;;;;5.55;4.05;;;21.00;80.50;;;;;;5093129;28;20031;-80
2021/05/03 20:06:01;;;;;;;5.93;3.45;;;20.90;80.60;;;;;;5093125;28;20020;-81
2021/05/03 20:08:27;;;;;;;5.10;3.20;;;21.00;80.70;;;;;;5092417;28;20055;-81
2021/05/03 20:10:52;;;;;;;5.28;3.30;;;20.90;80.60;;;;;;5091872;28;20028;-81
2021/05/03 20:13:18;;;;;;;5.57;3.80;;;20.90;80.70;;;;;;5092711;28;20024;-81
2021/05/03 20:15:44;;;;;;;4.70;3.28;;;21.00;80.70;;;;;;5091590;28;20042;-81
2021/05/03 20:18:10;;;;;;;4.15;3.20;;;21.00;80.70;;;;;;5091823;28;20027;-81
2021/05/03 20:20:37;;;;;;;4.30;3.47;;;20.90;80.70;;;;;;5092746;28;20024;-81
2021/05/03 20:23:03;;;;;;;5.90;3.72;;;21.00;81.30;;;;;;5092969;28;20042;-81
2021/05/03 20:25:30;;;;;;;4.63;3.40;;;20.90;80.70;;;;;;5092918;28;20441;-81
2021/05/03 20:27:56;;;;;;;4.68;3.22;;;20.90;80.80;;;;;;5091469;28;20381;-81
2021/05/03 20:30:23;;;;;;;5.18;3.30;;;20.90;80.80;;;;;;5094437;28;20028;-81
2021/05/03 20:32:49;;;;;;;5.40;3.25;;;20.90;80.80;;;;;;5095959;28;20039;-81
2021/05/03 20:35:54;;;;;;;4.70;3.35;;;20.90;80.80;;;;;;5096666;28;20024;-82
2021/05/03 20:40:42;;;;;;;3.78;2.83;;;20.90;80.90;;;;;;5096686;28;20115;-82
2021/05/03 20:43:10;;;;;;;3.35;2.85;;;20.90;80.90;;;;;;5095501;28;20563;-81
2021/05/03 20:45:39;;;;;;;4.63;3.00;;;20.90;80.90;;;;;;5096466;28;20113;-81
2021/05/03 20:48:07;;;;;;;3.38;2.75;;;20.90;81.00;;;;;;5096499;28;20032;-81
2021/05/03 20:50:36;;;;;;;5.30;2.95;;;20.90;81.00;;;;;;5096463;28;20106;-81
2021/05/03 20:53:03;;;;;;;4.53;3.30;;;20.80;81.00;;;;;;5096866;28;20024;-81
2021/05/03 20:55:32;;;;;;;4.93;3.10;;;20.90;81.00;;;;;;5095037;28;20043;-81
2021/05/03 20:57:57;;;;;;;4.03;3.05;;;20.90;81.10;;;;;;5095344;28;20461;-81
2021/05/03 21:00:23;;;;;;;3.20;2.83;;;20.90;81.20;;;;;;5096438;28;20038;-81
2021/05/03 21:02:51;;;;;;;4.35;3.08;;;20.90;81.20;;;;;;5095340;28;20461;-81
2021/05/03 21:05:17;;;;;;;3.28;2.70;;;20.90;81.20;;;;;;5096311;28;20372;-81
2021/05/03 21:07:43;;;;;;;3.03;2.50;;;20.90;81.20;;;;;;5096107;28;20109;-81
2021/05/03 21:10:09;;;;;;;5.57;2.97;;;20.90;81.20;;;;;;5096270;28;20380;-81
2021/05/03 21:12:35;;;;;;;3.03;2.55;;;20.90;81.20;;;;;;5094726;28;20083;-81
2021/05/03 21:15:00;;;;;;;3.80;3.15;;;20.90;81.10;;;;;;5094953;28;20032;-81
2021/05/03 21:17:26;;;;;;;5.45;3.40;;;20.90;81.10;;;;;;5095968;28;20032;-82
2021/05/03 21:19:53;;;;;;;5.35;3.63;;;21.00;81.20;;;;;;5094858;28;20134;-81
2021/05/03 21:22:19;;;;;;;4.25;3.20;;;21.00;81.10;;;;;;5094745;28;20411;-84
2021/05/03 21:24:45;;;;;;;3.42;2.92;;;21.00;81.10;;;;;;5095715;28;20115;-85
2021/05/03 21:27:10;;;;;;;4.22;3.28;;;20.90;81.00;;;;;;5094876;28;20028;-82
2021/05/03 21:29:37;;;;;;;3.92;3.03;;;21.00;81.00;;;;;;5095863;28;20028;-82
2021/05/03 21:32:03;;;;;;;5.85;3.70;;;21.00;81.50;;;;;;5096021;28;20024;-81
2021/05/03 21:34:28;;;;;;;3.53;3.22;;;20.90;80.90;;;;;;5095552;28;20024;-81
2021/05/03 21:36:54;;;;;;;3.78;2.85;;;20.90;80.90;;;;;;5094584;28;20058;-82
2021/05/03 21:39:20;;;;;;;4.38;3.20;;;20.90;80.80;;;;;;5093986;28;20020;-82
2021/05/03 21:41:45;;;;;;;3.75;2.90;;;20.90;80.80;;;;;;5095657;28;20131;-83
2021/05/03 21:44:12;;;;;;;4.22;2.88;;;20.90;80.90;;;;;;5095745;28;20463;-84
2021/05/03 21:46:37;;;;;;;4.30;3.05;;;20.90;80.80;;;;;;5094246;28;20032;-83
2021/05/03 21:49:03;;;;;;;4.20;3.40;;;20.90;80.70;;;;;;5094579;28;20106;-84
2021/05/03 21:51:29;;;;;;;4.68;3.22;;;20.90;80.50;;;;;;5094211;28;20377;-84
2021/05/03 21:53:57;;;;;;;4.15;3.13;;;20.90;80.40;;;;;;5093999;28;20024;-84
2021/05/03 21:56:22;;;;;;;4.55;3.10;;;20.90;80.20;;;;;;5095152;28;20032;-88
2021/05/03 21:58:48;;;;;;;2.80;2.45;;;20.80;80.10;;;;;;5095540;28;20107;-84
2021/05/03 22:01:14;;;;;;;4.75;2.80;;;20.80;80.00;;;;;;5094091;28;20461;-84
2021/05/03 22:03:40;;;;;;;3.10;2.40;;;20.80;79.90;;;;;;5094077;28;20377;-84
2021/05/03 22:06:06;;;;;;;3.13;2.60;;;20.80;79.80;;;;;;5095133;28;20024;-85
2021/05/03 22:08:37;;;;;;;4.63;2.40;;;20.80;79.60;;;;;;5094416;28;20044;-85
2021/05/03 22:11:06;;;;;;;3.22;2.55;;;20.80;79.50;;;;;;5095612;28;20040;-84
2021/05/03 22:13:36;;;;;;;2.95;2.60;;;20.80;79.50;;;;;;5093838;28;20485;-85
2021/05/03 22:16:05;;;;;;;2.90;2.50;;;20.80;79.40;;;;;;5094372;28;20031;-85
2021/05/03 22:21:01;;;;;;;4.05;2.40;;;20.80;79.30;;;;;;5094665;28;20024;-85
2021/05/03 22:26:10;;;;;;;3.33;2.25;;;20.80;79.40;;;;;;5094723;28;20024;-85
2021/05/03 22:28:37;;;;;;;2.20;2.00;;;20.80;79.40;;;;;;5094636;28;20034;-85
2021/05/03 22:31:04;;;;;;;3.17;2.50;;;20.80;79.40;;;;;;5076733;28;20032;-84
2021/05/03 22:33:34;;;;;;;2.72;2.20;;;20.90;79.40;;;;;;5094619;28;20056;-85
2021/05/03 22:36:07;;;;;;;4.90;2.88;;;20.90;79.40;;;;;;5075940;28;20090;-84
2021/05/03 22:38:40;;;;;;;4.00;2.97;;;20.90;79.40;;;;;;5077411;28;20439;-85
2021/05/03 22:41:30;;;;;;;3.97;2.53;;;20.90;79.30;;;;;;5077827;28;20030;-84
2021/05/03 23:19:14;;;;;;;2.92;2.63;;;20.80;80.70;;;;;;5093770;28;20054;-84
2021/05/03 23:21:45;;;;;;;2.72;2.38;;;20.80;80.80;;;;;;5093770;28;20024;-85
2021/05/03 23:24:13;;;;;;;5.25;3.55;;;20.80;80.90;;;;;;5093805;28;20024;-84
2021/05/03 23:26:39;;;;;;;5.35;2.92;;;20.80;81.00;;;;;;5092238;28;20024;-83
2021/05/03 23:29:04;;;;;;;3.72;2.90;;;20.80;81.00;;;;;;5093712;28;20028;-84
2021/05/03 23:31:30;;;;;;;4.32;3.05;;;20.80;81.10;;;;;;5092673;28;20480;-84
2021/05/03 23:33:55;;;;;;;5.28;2.95;;;20.80;81.10;;;;;;5093411;28;20020;-84
2021/05/03 23:36:21;;;;;;;5.03;3.40;;;20.80;81.10;;;;;;5092465;28;20404;-84
2021/05/03 23:38:47;;;;;;;3.78;3.05;;;20.80;81.10;;;;;;5092669;28;20099;-84
2021/05/03 23:41:12;;;;;;;4.60;3.33;;;20.80;81.20;;;;;;5092435;28;20017;-84
2021/05/03 23:43:38;;;;;;;4.78;3.50;;;20.80;81.20;;;;;;5092282;28;20027;-84
2021/05/03 23:46:04;;;;;;;5.00;3.78;;;20.80;81.20;;;;;;5092443;28;20055;-84
2021/05/03 23:48:32;;;;;;;5.38;3.45;;;20.80;81.30;;;;;;5092065;28;20114;-84
2021/05/03 23:50:58;;;;;;;4.75;3.72;;;20.80;81.30;;;;;;5093429;28;20027;-84
2021/05/03 23:53:23;;;;;;;5.97;4.30;;;20.80;81.40;;;;;;5093701;28;20036;-84